createdAt,value
2022-10-02T00:00:45.610Z,4.78
2022-10-02T00:03:21.648Z,4.55
2022-10-02T00:06:15.838Z,6.28
2022-10-02T00:08:44.417Z,4.85
2022-10-02T00:11:41.665Z,5.80
2022-10-02T00:14:27.226Z,7.63
2022-10-02T00:16:58.718Z,5.10
2022-10-02T00:19:26.810Z,7.18
2022-10-02T00:22:12.881Z,5.65
2022-10-02T00:24:47.669Z,5.28
2022-10-02T00:28:07.565Z,5.60
2022-10-02T00:30:57.493Z,9.27
2022-10-02T00:33:52.307Z,6.45
2022-10-02T00:36:41.322Z,5.57
2022-10-02T00:39:30.424Z,5.75
2022-10-02T00:42:34.950Z,8.55
2022-10-02T00:45:50.021Z,8.15
2022-10-02T00:48:44.572Z,7.82
2022-10-02T00:51:21.531Z,4.25
2022-10-02T00:54:23.478Z,4.03
2022-10-02T00:57:28.587Z,7.18
2022-10-02T01:00:23.429Z,5.05
2022-10-02T01:03:05.687Z,4.85
2022-10-02T01:05:34.415Z,4.82
2022-10-02T01:08:02.541Z,3.20
2022-10-02T01:10:31.025Z,5.32
2022-10-02T01:12:59.369Z,4.30
2022-10-02T01:15:37.811Z,4.00
2022-10-02T01:18:06.892Z,2.83
2022-10-02T01:20:38.047Z,2.92
2022-10-02T01:23:25.059Z,3.08
2022-10-02T01:25:52.316Z,2.92
2022-10-02T01:28:20.122Z,2.05
2022-10-02T01:30:55.110Z,2.75
2022-10-02T01:33:23.289Z,3.47
2022-10-02T01:35:50.826Z,4.47
2022-10-02T01:38:20.866Z,2.25
2022-10-02T01:40:49.031Z,3.22
2022-10-02T01:43:18.446Z,2.22
2022-10-02T01:45:59.381Z,4.20
2022-10-02T01:48:41.421Z,10.35
2022-10-02T01:51:26.609Z,1.90
2022-10-02T01:54:09.636Z,2.47
2022-10-02T01:56:56.183Z,1.98
2022-10-02T01:59:39.166Z,2.88
2022-10-02T02:02:21.499Z,2.55
2022-10-02T02:04:56.724Z,2.45
2022-10-02T02:07:40.529Z,5.75
2022-10-02T02:10:18.664Z,2.80
2022-10-02T02:13:04.377Z,2.03
2022-10-02T02:15:41.922Z,3.00
2022-10-02T02:18:30.066Z,2.75
2022-10-02T02:21:06.849Z,2.67
2022-10-02T02:23:37.804Z,2.28
2022-10-02T02:26:09.945Z,5.45
2022-10-02T02:28:41.292Z,2.30
2022-10-02T02:31:12.404Z,1.98
2022-10-02T02:33:55.491Z,2.35
2022-10-02T02:36:29.590Z,1.58
2022-10-02T02:39:07.837Z,2.22
2022-10-02T02:41:44.001Z,2.92
2022-10-02T02:44:34.722Z,3.80
2022-10-02T02:47:22.601Z,1.65
2022-10-02T02:49:55.388Z,1.20
2022-10-02T02:52:32.152Z,1.80
2022-10-02T02:55:12.981Z,1.23
2022-10-02T02:58:22.328Z,2.53
2022-10-02T03:00:50.809Z,2.65
2022-10-02T03:03:18.305Z,1.90
2022-10-02T03:05:50.032Z,1.90
2022-10-02T03:08:28.503Z,1.98
2022-10-02T03:11:17.034Z,1.98
2022-10-02T03:14:18.140Z,1.58
2022-10-02T03:17:07.818Z,1.92
2022-10-02T03:20:20.364Z,2.92
2022-10-02T03:23:13.388Z,1.23
2022-10-02T03:25:54.417Z,2.47
2022-10-02T03:28:54.910Z,1.60
2022-10-02T03:31:28.124Z,1.58
2022-10-02T03:34:01.518Z,2.03
2022-10-02T03:36:38.325Z,1.13
2022-10-02T03:39:25.522Z,5.65
2022-10-02T03:41:54.229Z,4.85
2022-10-02T03:44:21.671Z,1.55
2022-10-02T03:46:49.280Z,2.38
2022-10-02T03:49:16.412Z,1.30
2022-10-02T03:51:43.454Z,3.13
2022-10-02T03:54:17.901Z,2.83
2022-10-02T03:57:03.818Z,2.20
2022-10-02T03:59:49.454Z,1.63
2022-10-02T04:02:30.111Z,2.58
2022-10-02T04:05:23.115Z,3.00
2022-10-02T04:07:55.188Z,1.10
2022-10-02T04:10:31.295Z,3.33
2022-10-02T04:13:07.606Z,1.98
2022-10-02T04:16:36.461Z,2.17
2022-10-02T04:19:25.720Z,1.80
2022-10-02T04:22:21.609Z,2.15
2022-10-02T04:25:35.100Z,3.42
2022-10-02T04:28:12.457Z,3.30
2022-10-02T04:30:42.870Z,1.55
2022-10-02T04:33:20.665Z,2.50
2022-10-02T04:36:01.128Z,2.30
2022-10-02T04:38:51.976Z,5.65
2022-10-02T04:41:44.151Z,0.85
2022-10-02T04:44:31.387Z,2.35
2022-10-02T04:47:15.406Z,3.67
2022-10-02T04:50:11.742Z,5.35
2022-10-02T04:53:18.087Z,0.95
2022-10-02T04:56:07.661Z,1.88
2022-10-02T04:59:05.367Z,1.98
2022-10-02T05:01:44.580Z,1.90
2022-10-02T05:04:34.312Z,7.07
2022-10-02T05:07:36.522Z,5.03
2022-10-02T05:10:36.389Z,1.50
2022-10-02T05:13:25.455Z,3.20
2022-10-02T05:15:56.211Z,0.85
2022-10-02T05:18:26.622Z,3.40
2022-10-02T05:21:15.739Z,3.67
2022-10-02T05:24:01.448Z,3.88
2022-10-02T05:26:59.204Z,1.70
2022-10-02T05:29:46.317Z,2.05
2022-10-02T05:32:35.410Z,4.60
2022-10-02T05:35:32.064Z,3.20
2022-10-02T05:38:14.287Z,5.35
2022-10-02T05:40:57.024Z,4.80
2022-10-02T05:43:29.754Z,2.33
2022-10-02T05:46:00.195Z,1.90
2022-10-02T05:48:39.816Z,1.60
2022-10-02T05:51:13.918Z,2.25
2022-10-02T05:53:46.657Z,1.85
2022-10-02T05:56:19.604Z,1.30
2022-10-02T05:59:07.720Z,1.88
2022-10-02T06:01:39.881Z,0.68
2022-10-02T06:04:18.301Z,1.60
2022-10-02T06:06:52.144Z,2.38
2022-10-02T06:09:26.212Z,6.88
2022-10-02T06:12:01.759Z,3.88
2022-10-02T06:14:48.526Z,1.02
2022-10-02T06:17:41.601Z,2.00
2022-10-02T06:20:26.923Z,1.00
2022-10-02T06:23:02.355Z,1.50
2022-10-02T06:25:42.611Z,1.20
2022-10-02T06:28:20.897Z,3.10
2022-10-02T06:30:57.306Z,0.95
2022-10-02T06:33:31.729Z,3.45
2022-10-02T06:36:18.203Z,1.38
2022-10-02T06:39:15.003Z,2.97
2022-10-02T06:42:24.007Z,1.80
2022-10-02T06:45:12.279Z,3.17
2022-10-02T06:48:02.259Z,7.55
2022-10-02T06:50:58.894Z,2.72
2022-10-02T06:54:03.896Z,2.60
2022-10-02T06:56:43.647Z,4.68
2022-10-02T06:59:19.665Z,5.43
2022-10-02T07:02:17.523Z,2.53
2022-10-02T07:05:20.804Z,2.47
2022-10-02T07:08:05.187Z,1.80
2022-10-02T07:10:47.399Z,4.00
2022-10-02T07:13:24.983Z,1.02
2022-10-02T07:16:07.854Z,7.40
2022-10-02T07:19:07.463Z,5.85
2022-10-02T07:22:11.174Z,2.78
2022-10-02T07:24:58.913Z,1.48
2022-10-02T07:27:33.301Z,3.03
2022-10-02T07:30:09.422Z,3.25
2022-10-02T07:32:49.372Z,0.65
2022-10-02T07:36:07.902Z,4.63
2022-10-02T07:38:50.661Z,1.60
2022-10-02T07:41:26.836Z,3.13
2022-10-02T07:44:26.330Z,0.73
2022-10-02T07:47:16.972Z,0.80
2022-10-02T07:49:57.352Z,1.95
2022-10-02T07:52:34.597Z,2.28
2022-10-02T07:55:15.131Z,4.60
2022-10-02T07:58:13.324Z,2.93
2022-10-02T08:01:07.794Z,2.08
2022-10-02T08:03:50.563Z,2.10
2022-10-02T08:06:19.509Z,3.13
2022-10-02T08:08:55.589Z,2.28
2022-10-02T08:11:30.471Z,2.05
2022-10-02T08:14:03.624Z,3.30
2022-10-02T08:16:41.096Z,5.72
2022-10-02T08:19:31.224Z,2.25
2022-10-02T08:22:13.206Z,3.08
2022-10-02T08:24:55.750Z,2.40
2022-10-02T08:27:45.658Z,4.57
2022-10-02T08:30:14.726Z,3.03
2022-10-02T08:32:50.518Z,4.05
2022-10-02T08:35:19.922Z,1.40
2022-10-02T08:38:12.934Z,4.10
2022-10-02T08:40:56.770Z,1.00
2022-10-02T08:43:45.155Z,3.78
2022-10-02T08:46:44.461Z,2.03
2022-10-02T08:49:33.180Z,3.83
2022-10-02T08:52:14.711Z,0.50
2022-10-02T08:55:19.478Z,3.85
2022-10-02T08:57:49.805Z,0.90
2022-10-02T09:03:09.823Z,0.90
2022-10-02T09:06:02.608Z,2.40
2022-10-02T09:09:00.261Z,1.83
2022-10-02T09:11:45.075Z,2.42
2022-10-02T09:14:40.542Z,2.88
2022-10-02T09:17:35.437Z,1.33
2022-10-02T09:20:21.337Z,1.30
2022-10-02T09:23:19.284Z,2.55
2022-10-02T09:25:56.609Z,6.43
2022-10-02T09:29:00.820Z,1.08
2022-10-02T09:31:43.060Z,2.97
2022-10-02T09:34:52.365Z,0.60
2022-10-02T09:38:11.355Z,1.95
2022-10-02T09:41:09.756Z,0.98
2022-10-02T09:44:02.463Z,0.90
2022-10-02T09:47:00.388Z,1.95
2022-10-02T09:49:57.880Z,0.95
2022-10-02T09:53:04.145Z,0.80
2022-10-02T09:55:45.730Z,1.17
2022-10-02T09:58:53.474Z,1.10
2022-10-02T10:02:55.921Z,1.98
2022-10-02T10:09:35.406Z,0.80
2022-10-02T10:12:26.689Z,1.92
2022-10-02T10:15:30.004Z,2.45
2022-10-02T10:18:27.664Z,1.15
2022-10-02T10:21:19.865Z,1.50
2022-10-02T10:24:13.537Z,1.13
2022-10-02T10:26:50.169Z,1.58
2022-10-02T10:30:06.318Z,1.95
2022-10-02T10:32:59.858Z,2.22
2022-10-02T10:35:48.825Z,1.48
2022-10-02T14:18:34.192Z,35.88
2022-10-02T15:05:43.019Z,23.08
2022-10-02T15:08:19.027Z,18.27
2022-10-02T15:15:07.932Z,24.25
2022-10-02T15:27:39.884Z,17.73
2022-10-02T15:30:20.118Z,16.38
2022-10-02T15:33:07.452Z,19.10
2022-10-02T15:35:56.701Z,15.60
2022-10-02T15:38:43.545Z,21.85
2022-10-02T15:41:21.995Z,17.10
2022-10-02T15:44:01.197Z,13.57
2022-10-02T15:46:42.812Z,15.50
2022-10-02T15:49:22.441Z,11.25
2022-10-02T15:52:09.511Z,10.80
2022-10-02T15:55:09.284Z,12.13
2022-10-02T16:01:57.904Z,10.93
2022-10-02T16:04:49.046Z,10.23
2022-10-02T16:20:38.282Z,25.33
2022-10-02T16:55:58.372Z,18.63
2022-10-02T16:58:52.627Z,13.00
2022-10-02T17:02:15.905Z,15.82
2022-10-02T17:04:50.551Z,11.98
2022-10-02T17:43:36.246Z,13.80
2022-10-02T17:46:29.054Z,20.65
2022-10-02T17:49:19.403Z,14.95
2022-10-02T17:55:12.623Z,22.02
2022-10-02T17:58:09.671Z,26.40
2022-10-02T18:00:43.028Z,18.83
2022-10-02T18:03:37.214Z,22.65
2022-10-02T18:06:08.826Z,19.83
2022-10-02T18:09:07.235Z,17.55
2022-10-02T18:11:51.401Z,17.55
2022-10-02T18:14:48.453Z,23.13
2022-10-02T18:17:27.083Z,17.27
2022-10-02T18:20:17.461Z,16.65
2022-10-02T18:25:43.764Z,13.77
2022-10-02T18:28:33.160Z,18.95
2022-10-02T18:31:44.393Z,18.13
2022-10-02T18:37:05.360Z,20.30
2022-10-02T18:40:10.423Z,17.90
2022-10-02T18:42:56.157Z,18.30
2022-10-02T18:50:15.244Z,15.35
2022-10-02T18:53:22.807Z,15.35
2022-10-02T18:56:10.157Z,15.90
2022-10-02T18:58:56.975Z,13.93
2022-10-02T19:01:34.633Z,18.15
2022-10-02T19:04:21.364Z,48.05
2022-10-02T19:07:03.393Z,16.52
2022-10-02T19:09:33.321Z,16.25
2022-10-02T19:12:14.800Z,14.07
2022-10-02T19:14:48.224Z,15.38
2022-10-02T19:17:23.639Z,17.85
2022-10-02T19:19:52.223Z,21.48
2022-10-02T19:22:38.790Z,16.40
2022-10-02T19:25:17.263Z,16.17
2022-10-02T19:27:54.666Z,17.90
2022-10-02T19:30:26.907Z,18.67
2022-10-02T19:32:58.811Z,16.00
2022-10-02T19:35:33.715Z,21.65
2022-10-02T19:38:38.738Z,41.15
2022-10-02T19:41:11.147Z,25.58
2022-10-02T19:44:20.583Z,24.85
2022-10-02T19:46:51.118Z,21.90
2022-10-02T19:51:55.075Z,23.80
2022-10-02T19:54:35.419Z,26.20
2022-10-02T19:59:42.266Z,24.42
2022-10-02T20:02:26.317Z,26.83
2022-10-02T20:04:57.243Z,33.05
2022-10-02T20:07:28.600Z,28.77
2022-10-02T20:10:16.398Z,28.42
2022-10-02T20:12:51.894Z,29.05
2022-10-02T20:15:44.534Z,33.28
2022-10-02T20:18:14.317Z,33.42
2022-10-02T20:20:45.077Z,37.10
2022-10-02T20:23:26.276Z,36.53
2022-10-02T20:25:58.565Z,34.88
2022-10-02T20:28:33.030Z,36.70
2022-10-02T20:31:19.405Z,34.90
2022-10-02T20:33:54.828Z,40.08
2022-10-02T20:36:39.266Z,35.13
2022-10-02T20:39:12.233Z,96.13
2022-10-02T20:42:03.381Z,45.15
2022-10-02T20:44:34.849Z,37.28
2022-10-02T20:47:02.296Z,40.25
2022-10-02T20:49:37.833Z,37.75
2022-10-02T20:52:34.572Z,39.45
2022-10-02T20:55:18.296Z,38.63
2022-10-02T20:58:01.099Z,35.17
2022-10-02T21:00:43.347Z,41.40
2022-10-02T21:03:31.379Z,42.05
2022-10-02T21:06:19.952Z,38.35
2022-10-02T21:09:02.872Z,38.97
2022-10-02T21:11:41.093Z,41.30
2022-10-02T21:14:26.127Z,36.53
2022-10-02T21:17:07.143Z,37.08
2022-10-02T21:20:06.357Z,40.28
2022-10-02T21:23:09.265Z,38.47
2022-10-02T21:26:00.533Z,42.45
2022-10-02T21:28:58.095Z,37.08
2022-10-02T21:31:50.850Z,35.58
2022-10-02T21:34:36.399Z,42.05
2022-10-02T21:37:22.429Z,36.70
2022-10-02T21:40:17.430Z,36.30
2022-10-02T21:43:11.975Z,39.22
2022-10-02T21:46:06.348Z,41.72
2022-10-02T21:49:11.495Z,46.88
2022-10-02T21:51:50.514Z,44.28
2022-10-02T21:54:45.109Z,57.78
2022-10-02T21:57:40.809Z,49.85
2022-10-02T22:00:08.546Z,43.65
2022-10-02T22:02:47.844Z,48.17
2022-10-02T22:05:52.841Z,51.05
2022-10-02T22:08:39.069Z,54.85
2022-10-02T22:11:24.281Z,48.63
2022-10-02T22:14:00.473Z,51.15
2022-10-02T22:16:57.280Z,48.70
2022-10-02T22:19:33.365Z,56.35
2022-10-02T22:22:26.851Z,50.55
2022-10-02T22:25:37.709Z,49.50
2022-10-02T22:28:14.167Z,55.30
2022-10-02T22:31:07.468Z,53.92
2022-10-02T22:34:22.305Z,57.40
2022-10-02T22:37:04.828Z,58.90
2022-10-02T22:39:38.393Z,59.05
2022-10-02T22:42:14.179Z,55.58
2022-10-02T22:45:00.074Z,63.10
2022-10-02T22:47:49.261Z,59.33
2022-10-02T22:50:48.198Z,60.20
2022-10-02T22:53:18.737Z,62.63
2022-10-02T22:55:54.986Z,62.42
2022-10-02T22:58:48.544Z,61.92
2022-10-02T23:01:29.976Z,65.35
2022-10-02T23:04:16.578Z,69.18
2022-10-02T23:06:50.715Z,62.35
2022-10-02T23:09:21.351Z,66.78
2022-10-02T23:14:50.046Z,62.70
2022-10-02T23:17:36.745Z,56.95
2022-10-02T23:20:11.112Z,59.08
2022-10-02T23:23:07.810Z,66.55
2022-10-02T23:25:44.914Z,61.75
2022-10-02T23:28:21.170Z,51.63
2022-10-02T23:31:11.472Z,54.45
2022-10-02T23:34:12.860Z,62.40
2022-10-02T23:36:58.456Z,68.97
2022-10-02T23:39:46.537Z,55.20
2022-10-02T23:42:19.547Z,56.17
2022-10-02T23:45:24.246Z,60.83
2022-10-02T23:48:13.289Z,51.88
2022-10-02T23:51:14.952Z,50.97
2022-10-02T23:53:48.488Z,49.50
2022-10-02T23:56:15.789Z,45.58
2022-10-02T23:58:53.250Z,37.70
